Airfield :
LOGIN :

Register | Disclaimer

   EN    FR    IT 

 










Legend :    VFR   Marginal VFR   IFR   Intensive IFR   Very Intensive IFR
Visi :
Ceiling :
>= 8 km
>= 3000ft
5 to 8 km
1000 to 3000 ft
1500m to 5 km
500 to 1000 ft
800 to 1500m
200 to 500 ft
< 800m
< 200 ft
Symbols :   Thunderstorms  Fog  Heavy snow  Heavy precipitations  Wind > 20 kt
SIGMETs :     Misc.  Thunderstorms  Icing  Turbulence  Mountain Waves  Volcanic Ashes







- Airport Elevation : 82 ft
- IATA code : AAR


EKAH - Aarhus Tirstrup

CURRENT METAR :
  • 252220Z AUTO 27013KT 9999NDV FEW012/// 04/02 Q1020

EXPIRED METARs :
  • 252150Z AUTO 26011KT 9999NDV BKN013/// 04/02 Q1021
  • 252120Z AUTO 27012KT 9999NDV FEW013/// 04/02 Q1021
  • 252050Z AUTO 27010KT 9999NDV NCD 04/02 Q1021
  • 252020Z AUTO 27008KT 9999NDV NCD 04/02 Q1021
  • 251950Z AUTO 27006KT 9999NDV NCD 04/02 Q1021

TAF TAF EKAH
Valid from the 25 at 18:00 until the 26 at 18:00 UTC


251707Z 2518/2618 35010KT 9999 SCT020
BECMG 2519/2521 26006KT
BECMG 2600/2602 30012KT
No reported NOTAMs for that airfield.



MET'MAP, your aeronautical weather chart ! - Copyright ORBIFLY December 2007 - Disclaimer

ORBIFLY MET'MAP TEAM :

Programming & Development : Alexandra Zaïnal
Concept & Development : Baudouin d'Aumeries
Co-Development & Prog : Marc-Olivier Méhu
Technical & hardware support : Manuel Goepfert

Contact : metmap@orbifly.com




SOURCES & CREDITS :

   NOAA